sensor_id;sensor_type;location;lat;lon;timestamp;P1;durP1;ratioP1;P2;durP2;ratioP2
32872;SDS011;19224;52.462;16.898;2023-03-03T00:00:27;51.90;;;23.80;;
32872;SDS011;19224;52.462;16.898;2023-03-03T00:02:59;50.57;;;24.43;;
32872;SDS011;19224;52.462;16.898;2023-03-03T00:05:33;49.53;;;23.13;;
32872;SDS011;19224;52.462;16.898;2023-03-03T00:08:04;54.90;;;25.83;;
32872;SDS011;19224;52.462;16.898;2023-03-03T00:10:35;57.50;;;26.10;;
32872;SDS011;19224;52.462;16.898;2023-03-03T00:13:20;56.10;;;25.07;;
32872;SDS011;19224;52.462;16.898;2023-03-03T00:15:53;57.30;;;26.07;;
32872;SDS011;19224;52.462;16.898;2023-03-03T00:18:42;60.20;;;27.57;;
32872;SDS011;19224;52.462;16.898;2023-03-03T00:21:29;50.20;;;23.97;;
32872;SDS011;19224;52.462;16.898;2023-03-03T00:24:23;50.47;;;23.03;;
32872;SDS011;19224;52.462;16.898;2023-03-03T00:26:55;37.50;;;19.07;;
32872;SDS011;19224;52.462;16.898;2023-03-03T00:32:15;36.67;;;17.37;;
32872;SDS011;19224;52.462;16.898;2023-03-03T00:34:59;35.87;;;18.00;;
32872;SDS011;19224;52.462;16.898;2023-03-03T00:37:39;33.53;;;16.63;;
32872;SDS011;19224;52.462;16.898;2023-03-03T00:40:21;34.77;;;16.77;;
32872;SDS011;19224;52.462;16.898;2023-03-03T00:42:57;34.13;;;17.13;;
32872;SDS011;19224;52.462;16.898;2023-03-03T00:50:58;42.43;;;17.73;;
32872;SDS011;19224;52.462;16.898;2023-03-03T00:53:31;32.93;;;15.07;;
32872;SDS011;19224;52.462;16.898;2023-03-03T00:56:01;33.23;;;15.63;;
32872;SDS011;19224;52.462;16.898;2023-03-03T00:58:32;35.47;;;17.43;;
32872;SDS011;19224;52.462;16.898;2023-03-03T01:01:02;36.97;;;17.70;;
32872;SDS011;19224;52.462;16.898;2023-03-03T01:03:33;34.37;;;16.33;;
32872;SDS011;19224;52.462;16.898;2023-03-03T01:06:03;34.87;;;16.80;;
32872;SDS011;19224;52.462;16.898;2023-03-03T01:08:34;37.50;;;16.63;;
32872;SDS011;19224;52.462;16.898;2023-03-03T01:11:10;36.83;;;17.23;;
32872;SDS011;19224;52.462;16.898;2023-03-03T01:13:43;35.60;;;17.33;;
32872;SDS011;19224;52.462;16.898;2023-03-03T01:16:17;32.80;;;16.47;;
32872;SDS011;19224;52.462;16.898;2023-03-03T01:18:51;33.70;;;16.43;;
32872;SDS011;19224;52.462;16.898;2023-03-03T01:21:21;36.80;;;17.03;;
32872;SDS011;19224;52.462;16.898;2023-03-03T01:23:51;44.97;;;20.37;;
32872;SDS011;19224;52.462;16.898;2023-03-03T01:26:22;29.83;;;14.53;;
32872;SDS011;19224;52.462;16.898;2023-03-03T01:28:53;37.30;;;16.93;;
32872;SDS011;19224;52.462;16.898;2023-03-03T01:31:23;34.63;;;17.63;;
32872;SDS011;19224;52.462;16.898;2023-03-03T01:33:54;35.07;;;17.63;;
32872;SDS011;19224;52.462;16.898;2023-03-03T01:36:26;32.63;;;16.17;;
32872;SDS011;19224;52.462;16.898;2023-03-03T01:38:57;39.13;;;18.33;;
32872;SDS011;19224;52.462;16.898;2023-03-03T01:41:27;29.80;;;14.73;;
32872;SDS011;19224;52.462;16.898;2023-03-03T01:44:02;27.40;;;13.70;;
32872;SDS011;19224;52.462;16.898;2023-03-03T01:46:54;29.93;;;14.63;;
32872;SDS011;19224;52.462;16.898;2023-03-03T01:49:46;24.03;;;11.57;;
32872;SDS011;19224;52.462;16.898;2023-03-03T01:55:06;30.00;;;14.07;;
32872;SDS011;19224;52.462;16.898;2023-03-03T01:57:44;30.77;;;14.60;;
32872;SDS011;19224;52.462;16.898;2023-03-03T02:00:20;25.70;;;12.83;;
32872;SDS011;19224;52.462;16.898;2023-03-03T02:02:51;23.63;;;12.90;;
32872;SDS011;19224;52.462;16.898;2023-03-03T02:05:22;26.87;;;13.40;;
32872;SDS011;19224;52.462;16.898;2023-03-03T02:07:53;26.57;;;13.70;;
32872;SDS011;19224;52.462;16.898;2023-03-03T02:10:24;23.00;;;11.70;;
32872;SDS011;19224;52.462;16.898;2023-03-03T02:12:56;23.73;;;12.00;;
32872;SDS011;19224;52.462;16.898;2023-03-03T02:15:28;22.17;;;11.80;;
32872;SDS011;19224;52.462;16.898;2023-03-03T02:18:05;23.97;;;11.90;;
32872;SDS011;19224;52.462;16.898;2023-03-03T02:26:16;26.30;;;12.00;;
32872;SDS011;19224;52.462;16.898;2023-03-03T02:28:58;27.17;;;13.43;;
32872;SDS011;19224;52.462;16.898;2023-03-03T02:31:30;25.50;;;12.33;;
32872;SDS011;19224;52.462;16.898;2023-03-03T02:34:01;22.87;;;11.37;;
32872;SDS011;19224;52.462;16.898;2023-03-03T02:36:33;20.10;;;11.10;;
32872;SDS011;19224;52.462;16.898;2023-03-03T02:44:46;19.00;;;10.97;;
32872;SDS011;19224;52.462;16.898;2023-03-03T02:47:16;21.57;;;11.23;;
32872;SDS011;19224;52.462;16.898;2023-03-03T02:49:46;22.73;;;11.77;;
32872;SDS011;19224;52.462;16.898;2023-03-03T02:52:17;21.70;;;11.43;;
32872;SDS011;19224;52.462;16.898;2023-03-03T02:54:47;22.67;;;11.67;;
32872;SDS011;19224;52.462;16.898;2023-03-03T02:57:17;17.57;;;9.77;;
32872;SDS011;19224;52.462;16.898;2023-03-03T02:59:48;17.90;;;10.17;;
32872;SDS011;19224;52.462;16.898;2023-03-03T03:02:18;16.80;;;8.97;;
32872;SDS011;19224;52.462;16.898;2023-03-03T03:04:48;13.37;;;7.83;;
32872;SDS011;19224;52.462;16.898;2023-03-03T03:07:19;19.63;;;9.97;;
32872;SDS011;19224;52.462;16.898;2023-03-03T03:09:49;16.87;;;8.97;;
32872;SDS011;19224;52.462;16.898;2023-03-03T03:12:20;17.67;;;9.10;;
32872;SDS011;19224;52.462;16.898;2023-03-03T03:14:50;18.53;;;10.00;;
32872;SDS011;19224;52.462;16.898;2023-03-03T03:17:20;17.37;;;9.37;;
32872;SDS011;19224;52.462;16.898;2023-03-03T03:19:51;19.70;;;10.10;;
32872;SDS011;19224;52.462;16.898;2023-03-03T03:22:21;17.30;;;9.10;;
32872;SDS011;19224;52.462;16.898;2023-03-03T03:24:51;17.40;;;9.43;;
32872;SDS011;19224;52.462;16.898;2023-03-03T03:27:22;19.70;;;10.03;;
32872;SDS011;19224;52.462;16.898;2023-03-03T03:29:52;19.80;;;9.83;;
32872;SDS011;19224;52.462;16.898;2023-03-03T03:32:22;16.33;;;8.83;;
32872;SDS011;19224;52.462;16.898;2023-03-03T03:34:53;15.83;;;8.70;;
32872;SDS011;19224;52.462;16.898;2023-03-03T03:37:23;16.63;;;8.83;;
32872;SDS011;19224;52.462;16.898;2023-03-03T03:39:54;17.10;;;8.80;;
32872;SDS011;19224;52.462;16.898;2023-03-03T03:42:24;18.13;;;9.00;;
32872;SDS011;19224;52.462;16.898;2023-03-03T03:44:54;17.20;;;9.07;;
32872;SDS011;19224;52.462;16.898;2023-03-03T03:47:24;19.83;;;9.73;;
32872;SDS011;19224;52.462;16.898;2023-03-03T03:49:55;18.10;;;9.47;;
32872;SDS011;19224;52.462;16.898;2023-03-03T03:52:25;17.07;;;9.10;;
32872;SDS011;19224;52.462;16.898;2023-03-03T03:54:55;19.07;;;10.23;;
32872;SDS011;19224;52.462;16.898;2023-03-03T03:57:26;16.80;;;8.97;;
32872;SDS011;19224;52.462;16.898;2023-03-03T03:59:56;16.20;;;9.03;;
32872;SDS011;19224;52.462;16.898;2023-03-03T04:02:27;16.77;;;8.93;;
32872;SDS011;19224;52.462;16.898;2023-03-03T04:04:57;16.83;;;8.63;;
32872;SDS011;19224;52.462;16.898;2023-03-03T04:07:27;21.50;;;10.10;;
32872;SDS011;19224;52.462;16.898;2023-03-03T04:09:58;16.07;;;9.17;;
32872;SDS011;19224;52.462;16.898;2023-03-03T04:12:28;18.17;;;9.40;;
32872;SDS011;19224;52.462;16.898;2023-03-03T04:15:00;18.77;;;9.40;;
32872;SDS011;19224;52.462;16.898;2023-03-03T04:17:30;18.83;;;10.00;;
32872;SDS011;19224;52.462;16.898;2023-03-03T04:20:01;17.30;;;9.80;;
32872;SDS011;19224;52.462;16.898;2023-03-03T04:22:32;25.00;;;11.30;;
32872;SDS011;19224;52.462;16.898;2023-03-03T04:25:03;18.20;;;9.53;;
32872;SDS011;19224;52.462;16.898;2023-03-03T04:27:35;20.13;;;9.50;;
32872;SDS011;19224;52.462;16.898;2023-03-03T04:30:06;18.80;;;9.27;;
32872;SDS011;19224;52.462;16.898;2023-03-03T04:32:38;21.10;;;10.40;;
32872;SDS011;19224;52.462;16.898;2023-03-03T04:35:10;19.13;;;9.43;;
32872;SDS011;19224;52.462;16.898;2023-03-03T04:37:41;19.67;;;9.73;;
32872;SDS011;19224;52.462;16.898;2023-03-03T04:40:11;17.33;;;9.53;;
32872;SDS011;19224;52.462;16.898;2023-03-03T04:42:43;20.07;;;10.20;;
32872;SDS011;19224;52.462;16.898;2023-03-03T04:45:13;19.83;;;9.63;;
32872;SDS011;19224;52.462;16.898;2023-03-03T04:47:44;22.73;;;10.93;;
32872;SDS011;19224;52.462;16.898;2023-03-03T04:50:14;20.63;;;10.17;;
32872;SDS011;19224;52.462;16.898;2023-03-03T04:52:44;19.20;;;9.30;;
32872;SDS011;19224;52.462;16.898;2023-03-03T04:55:15;18.27;;;9.77;;
32872;SDS011;19224;52.462;16.898;2023-03-03T04:57:45;19.40;;;9.97;;
32872;SDS011;19224;52.462;16.898;2023-03-03T05:00:16;21.63;;;10.57;;
32872;SDS011;19224;52.462;16.898;2023-03-03T05:02:47;21.03;;;10.47;;
32872;SDS011;19224;52.462;16.898;2023-03-03T05:05:18;18.00;;;8.97;;
32872;SDS011;19224;52.462;16.898;2023-03-03T05:07:48;19.97;;;10.40;;
32872;SDS011;19224;52.462;16.898;2023-03-03T05:10:18;21.77;;;11.40;;
32872;SDS011;19224;52.462;16.898;2023-03-03T05:12:49;21.33;;;10.83;;
32872;SDS011;19224;52.462;16.898;2023-03-03T05:15:19;19.40;;;9.97;;
32872;SDS011;19224;52.462;16.898;2023-03-03T05:17:50;19.90;;;10.33;;
32872;SDS011;19224;52.462;16.898;2023-03-03T05:20:22;23.03;;;11.93;;
32872;SDS011;19224;52.462;16.898;2023-03-03T05:22:53;20.83;;;9.87;;
32872;SDS011;19224;52.462;16.898;2023-03-03T05:25:25;19.70;;;9.97;;
32872;SDS011;19224;52.462;16.898;2023-03-03T05:27:55;22.87;;;10.70;;
32872;SDS011;19224;52.462;16.898;2023-03-03T05:30:26;25.67;;;10.97;;
32872;SDS011;19224;52.462;16.898;2023-03-03T05:32:56;23.77;;;11.00;;
32872;SDS011;19224;52.462;16.898;2023-03-03T05:35:27;25.40;;;11.93;;
32872;SDS011;19224;52.462;16.898;2023-03-03T05:37:57;26.10;;;13.40;;
32872;SDS011;19224;52.462;16.898;2023-03-03T05:40:28;22.70;;;11.40;;
32872;SDS011;19224;52.462;16.898;2023-03-03T05:42:58;22.60;;;10.67;;
32872;SDS011;19224;52.462;16.898;2023-03-03T05:45:29;26.23;;;11.93;;
32872;SDS011;19224;52.462;16.898;2023-03-03T05:47:59;21.83;;;10.60;;
32872;SDS011;19224;52.462;16.898;2023-03-03T05:50:32;22.20;;;11.07;;
32872;SDS011;19224;52.462;16.898;2023-03-03T05:53:03;23.40;;;11.10;;
32872;SDS011;19224;52.462;16.898;2023-03-03T05:55:34;20.63;;;11.03;;
32872;SDS011;19224;52.462;16.898;2023-03-03T05:58:04;20.33;;;10.67;;
32872;SDS011;19224;52.462;16.898;2023-03-03T06:00:34;22.73;;;10.17;;
32872;SDS011;19224;52.462;16.898;2023-03-03T06:03:05;18.93;;;9.90;;
32872;SDS011;19224;52.462;16.898;2023-03-03T06:05:35;19.43;;;10.00;;
32872;SDS011;19224;52.462;16.898;2023-03-03T06:08:05;18.13;;;9.30;;
32872;SDS011;19224;52.462;16.898;2023-03-03T06:10:36;17.23;;;8.47;;
32872;SDS011;19224;52.462;16.898;2023-03-03T06:13:06;17.00;;;9.23;;
32872;SDS011;19224;52.462;16.898;2023-03-03T06:15:37;18.73;;;8.80;;
32872;SDS011;19224;52.462;16.898;2023-03-03T06:18:07;22.57;;;9.60;;
32872;SDS011;19224;52.462;16.898;2023-03-03T06:20:37;17.60;;;9.03;;
32872;SDS011;19224;52.462;16.898;2023-03-03T06:23:08;18.43;;;9.43;;
32872;SDS011;19224;52.462;16.898;2023-03-03T06:25:38;15.57;;;8.27;;
32872;SDS011;19224;52.462;16.898;2023-03-03T06:31:05;19.13;;;9.93;;
32872;SDS011;19224;52.462;16.898;2023-03-03T06:33:36;18.87;;;9.57;;
32872;SDS011;19224;52.462;16.898;2023-03-03T06:36:09;18.90;;;9.37;;
32872;SDS011;19224;52.462;16.898;2023-03-03T06:38:43;25.80;;;11.50;;
32872;SDS011;19224;52.462;16.898;2023-03-03T06:41:17;18.53;;;9.83;;
32872;SDS011;19224;52.462;16.898;2023-03-03T06:43:49;18.00;;;9.43;;
32872;SDS011;19224;52.462;16.898;2023-03-03T06:46:20;18.87;;;9.83;;
32872;SDS011;19224;52.462;16.898;2023-03-03T06:48:50;17.30;;;9.17;;
32872;SDS011;19224;52.462;16.898;2023-03-03T06:51:22;22.27;;;9.47;;
32872;SDS011;19224;52.462;16.898;2023-03-03T06:54:15;19.13;;;9.70;;
32872;SDS011;19224;52.462;16.898;2023-03-03T06:56:47;19.17;;;10.27;;
32872;SDS011;19224;52.462;16.898;2023-03-03T06:59:26;20.50;;;9.63;;
32872;SDS011;19224;52.462;16.898;2023-03-03T07:01:57;20.87;;;9.87;;
32872;SDS011;19224;52.462;16.898;2023-03-03T07:04:31;16.53;;;8.73;;
32872;SDS011;19224;52.462;16.898;2023-03-03T07:07:24;21.13;;;9.37;;
32872;SDS011;19224;52.462;16.898;2023-03-03T07:09:52;17.73;;;9.13;;
32872;SDS011;19224;52.462;16.898;2023-03-03T07:12:30;21.73;;;9.83;;
32872;SDS011;19224;52.462;16.898;2023-03-03T07:17:47;17.10;;;8.33;;
32872;SDS011;19224;52.462;16.898;2023-03-03T07:20:27;19.17;;;9.67;;
32872;SDS011;19224;52.462;16.898;2023-03-03T07:23:17;17.13;;;8.93;;
32872;SDS011;19224;52.462;16.898;2023-03-03T07:25:48;17.17;;;8.83;;
32872;SDS011;19224;52.462;16.898;2023-03-03T07:28:26;20.00;;;10.07;;
32872;SDS011;19224;52.462;16.898;2023-03-03T07:31:28;18.63;;;9.47;;
32872;SDS011;19224;52.462;16.898;2023-03-03T07:34:21;21.47;;;10.00;;
32872;SDS011;19224;52.462;16.898;2023-03-03T07:37:14;18.03;;;9.00;;
32872;SDS011;19224;52.462;16.898;2023-03-03T07:39:59;18.33;;;9.00;;
32872;SDS011;19224;52.462;16.898;2023-03-03T07:42:39;22.53;;;10.63;;
32872;SDS011;19224;52.462;16.898;2023-03-03T07:45:33;20.07;;;9.73;;
32872;SDS011;19224;52.462;16.898;2023-03-03T07:51:00;19.37;;;10.07;;
32872;SDS011;19224;52.462;16.898;2023-03-03T07:53:49;22.50;;;10.50;;
32872;SDS011;19224;52.462;16.898;2023-03-03T07:56:33;21.83;;;10.57;;
32872;SDS011;19224;52.462;16.898;2023-03-03T08:01:56;24.13;;;9.93;;
32872;SDS011;19224;52.462;16.898;2023-03-03T08:04:47;20.83;;;9.67;;
32872;SDS011;19224;52.462;16.898;2023-03-03T08:07:20;21.03;;;9.70;;
32872;SDS011;19224;52.462;16.898;2023-03-03T08:10:00;21.30;;;10.93;;
32872;SDS011;19224;52.462;16.898;2023-03-03T08:12:36;21.90;;;10.90;;
32872;SDS011;19224;52.462;16.898;2023-03-03T08:15:27;23.33;;;11.07;;
32872;SDS011;19224;52.462;16.898;2023-03-03T08:17:55;25.40;;;11.63;;
32872;SDS011;19224;52.462;16.898;2023-03-03T08:23:14;25.17;;;11.90;;
32872;SDS011;19224;52.462;16.898;2023-03-03T08:25:49;21.00;;;10.77;;
32872;SDS011;19224;52.462;16.898;2023-03-03T08:28:21;23.03;;;11.20;;
32872;SDS011;19224;52.462;16.898;2023-03-03T08:30:54;26.20;;;12.23;;
32872;SDS011;19224;52.462;16.898;2023-03-03T08:33:27;27.30;;;12.63;;
32872;SDS011;19224;52.462;16.898;2023-03-03T08:36:03;22.90;;;11.30;;
32872;SDS011;19224;52.462;16.898;2023-03-03T08:38:35;24.97;;;12.90;;
32872;SDS011;19224;52.462;16.898;2023-03-03T08:41:07;25.70;;;13.27;;
32872;SDS011;19224;52.462;16.898;2023-03-03T08:43:39;26.73;;;12.50;;
32872;SDS011;19224;52.462;16.898;2023-03-03T08:46:11;23.33;;;11.73;;
32872;SDS011;19224;52.462;16.898;2023-03-03T08:48:43;26.67;;;12.93;;
32872;SDS011;19224;52.462;16.898;2023-03-03T08:51:13;24.07;;;12.23;;
32872;SDS011;19224;52.462;16.898;2023-03-03T08:53:53;25.67;;;12.33;;
32872;SDS011;19224;52.462;16.898;2023-03-03T08:56:23;24.90;;;12.67;;
32872;SDS011;19224;52.462;16.898;2023-03-03T08:58:55;29.20;;;13.20;;
32872;SDS011;19224;52.462;16.898;2023-03-03T09:01:28;29.20;;;14.00;;
32872;SDS011;19224;52.462;16.898;2023-03-03T09:04:00;30.53;;;14.60;;
32872;SDS011;19224;52.462;16.898;2023-03-03T09:06:30;29.40;;;13.70;;
32872;SDS011;19224;52.462;16.898;2023-03-03T09:09:01;25.57;;;12.03;;
32872;SDS011;19224;52.462;16.898;2023-03-03T09:11:32;31.80;;;13.93;;
32872;SDS011;19224;52.462;16.898;2023-03-03T09:14:13;29.93;;;14.00;;
32872;SDS011;19224;52.462;16.898;2023-03-03T09:16:51;32.37;;;14.27;;
32872;SDS011;19224;52.462;16.898;2023-03-03T09:19:27;30.10;;;15.07;;
32872;SDS011;19224;52.462;16.898;2023-03-03T09:22:02;28.70;;;13.47;;
32872;SDS011;19224;52.462;16.898;2023-03-03T09:24:55;42.60;;;16.57;;
32872;SDS011;19224;52.462;16.898;2023-03-03T09:27:30;31.50;;;14.37;;
32872;SDS011;19224;52.462;16.898;2023-03-03T09:30:18;28.17;;;14.07;;
32872;SDS011;19224;52.462;16.898;2023-03-03T09:33:01;27.33;;;12.53;;
32872;SDS011;19224;52.462;16.898;2023-03-03T09:36:00;27.83;;;12.70;;
32872;SDS011;19224;52.462;16.898;2023-03-03T09:38:48;25.57;;;12.97;;
32872;SDS011;19224;52.462;16.898;2023-03-03T09:41:29;36.87;;;15.40;;
32872;SDS011;19224;52.462;16.898;2023-03-03T09:47:28;33.80;;;15.03;;
32872;SDS011;19224;52.462;16.898;2023-03-03T09:50:17;29.60;;;13.10;;
32872;SDS011;19224;52.462;16.898;2023-03-03T09:53:09;28.93;;;13.07;;
32872;SDS011;19224;52.462;16.898;2023-03-03T09:56:10;28.33;;;12.30;;
32872;SDS011;19224;52.462;16.898;2023-03-03T09:58:52;24.03;;;12.40;;
32872;SDS011;19224;52.462;16.898;2023-03-03T10:05:10;30.70;;;14.17;;
32872;SDS011;19224;52.462;16.898;2023-03-03T10:19:26;30.30;;;13.27;;
32872;SDS011;19224;52.462;16.898;2023-03-03T10:22:05;32.90;;;14.67;;
32872;SDS011;19224;52.462;16.898;2023-03-03T10:28:22;34.67;;;15.13;;
32872;SDS011;19224;52.462;16.898;2023-03-03T10:34:24;38.87;;;17.87;;
32872;SDS011;19224;52.462;16.898;2023-03-03T10:37:40;33.63;;;15.43;;
32872;SDS011;19224;52.462;16.898;2023-03-03T10:40:33;37.47;;;15.53;;
32872;SDS011;19224;52.462;16.898;2023-03-03T10:46:40;38.73;;;18.90;;
32872;SDS011;19224;52.462;16.898;2023-03-03T10:49:21;29.27;;;13.80;;
32872;SDS011;19224;52.462;16.898;2023-03-03T10:52:06;29.27;;;14.17;;
32872;SDS011;19224;52.462;16.898;2023-03-03T10:55:07;31.77;;;14.17;;
32872;SDS011;19224;52.462;16.898;2023-03-03T11:01:03;28.87;;;14.27;;
32872;SDS011;19224;52.462;16.898;2023-03-03T11:10:13;31.27;;;13.83;;
32872;SDS011;19224;52.462;16.898;2023-03-03T11:25:19;33.67;;;14.93;;
32872;SDS011;19224;52.462;16.898;2023-03-03T11:31:10;39.47;;;16.60;;
32872;SDS011;19224;52.462;16.898;2023-03-03T11:36:52;35.40;;;15.60;;
32872;SDS011;19224;52.462;16.898;2023-03-03T11:39:47;38.87;;;14.90;;
32872;SDS011;19224;52.462;16.898;2023-03-03T11:42:30;36.37;;;15.73;;
32872;SDS011;19224;52.462;16.898;2023-03-03T11:45:18;41.20;;;15.70;;
32872;SDS011;19224;52.462;16.898;2023-03-03T11:48:38;39.90;;;14.97;;
32872;SDS011;19224;52.462;16.898;2023-03-03T11:50:57;39.55;;;15.20;;
32872;SDS011;19224;52.462;16.898;2023-03-03T11:53:43;32.63;;;14.53;;
32872;SDS011;19224;52.462;16.898;2023-03-03T11:56:22;26.43;;;12.30;;
32872;SDS011;19224;52.462;16.898;2023-03-03T12:01:59;27.98;;;14.07;;
32872;SDS011;19224;52.462;16.898;2023-03-03T12:04:43;26.27;;;11.70;;
32872;SDS011;19224;52.462;16.898;2023-03-03T12:07:22;30.83;;;13.17;;
32872;SDS011;19224;52.462;16.898;2023-03-03T12:10:23;33.42;;;13.83;;
32872;SDS011;19224;52.462;16.898;2023-03-03T12:13:02;29.67;;;13.63;;
32872;SDS011;19224;52.462;16.898;2023-03-03T12:15:54;29.57;;;13.43;;
32872;SDS011;19224;52.462;16.898;2023-03-03T12:18:31;30.73;;;14.37;;
32872;SDS011;19224;52.462;16.898;2023-03-03T12:24:20;44.37;;;18.83;;
32872;SDS011;19224;52.462;16.898;2023-03-03T12:27:05;54.20;;;20.97;;
32872;SDS011;19224;52.462;16.898;2023-03-03T12:30:00;44.20;;;18.62;;
32872;SDS011;19224;52.462;16.898;2023-03-03T12:44:40;42.87;;;17.73;;
32872;SDS011;19224;52.462;16.898;2023-03-03T12:47:29;48.20;;;17.40;;
32872;SDS011;19224;52.462;16.898;2023-03-03T12:56:10;44.93;;;17.17;;
32872;SDS011;19224;52.462;16.898;2023-03-03T12:58:58;43.37;;;18.00;;
32872;SDS011;19224;52.462;16.898;2023-03-03T13:02:02;37.83;;;15.63;;
32872;SDS011;19224;52.462;16.898;2023-03-03T13:10:02;40.08;;;16.37;;
32872;SDS011;19224;52.462;16.898;2023-03-03T13:15:20;38.83;;;15.40;;
32872;SDS011;19224;52.462;16.898;2023-03-03T13:18:02;35.33;;;15.77;;
32872;SDS011;19224;52.462;16.898;2023-03-03T13:26:39;30.30;;;12.50;;
32872;SDS011;19224;52.462;16.898;2023-03-03T13:32:20;32.63;;;14.83;;
32872;SDS011;19224;52.462;16.898;2023-03-03T13:37:47;28.93;;;13.93;;
32872;SDS011;19224;52.462;16.898;2023-03-03T13:43:04;23.57;;;11.60;;
32872;SDS011;19224;52.462;16.898;2023-03-03T13:45:56;25.70;;;12.07;;
32872;SDS011;19224;52.462;16.898;2023-03-03T13:48:35;24.40;;;11.17;;
32872;SDS011;19224;52.462;16.898;2023-03-03T13:51:28;22.50;;;11.37;;
32872;SDS011;19224;52.462;16.898;2023-03-03T14:01:19;25.07;;;11.67;;
32872;SDS011;19224;52.462;16.898;2023-03-03T14:06:22;29.77;;;13.23;;
32872;SDS011;19224;52.462;16.898;2023-03-03T14:09:08;32.70;;;14.30;;
32872;SDS011;19224;52.462;16.898;2023-03-03T14:15:00;32.73;;;16.17;;
32872;SDS011;19224;52.462;16.898;2023-03-03T14:21:12;29.27;;;13.77;;
32872;SDS011;19224;52.462;16.898;2023-03-03T14:26:52;21.43;;;11.93;;
32872;SDS011;19224;52.462;16.898;2023-03-03T14:32:19;26.87;;;11.60;;
32872;SDS011;19224;52.462;16.898;2023-03-03T14:34:57;35.30;;;15.90;;
32872;SDS011;19224;52.462;16.898;2023-03-03T14:37:47;27.10;;;13.67;;
32872;SDS011;19224;52.462;16.898;2023-03-03T14:40:20;25.70;;;12.77;;
32872;SDS011;19224;52.462;16.898;2023-03-03T14:43:01;28.53;;;12.97;;
32872;SDS011;19224;52.462;16.898;2023-03-03T14:45:39;21.67;;;11.27;;
32872;SDS011;19224;52.462;16.898;2023-03-03T14:48:19;24.47;;;11.05;;
32872;SDS011;19224;52.462;16.898;2023-03-03T14:53:47;22.60;;;10.30;;
32872;SDS011;19224;52.462;16.898;2023-03-03T14:56:23;30.13;;;11.33;;
32872;SDS011;19224;52.462;16.898;2023-03-03T14:59:19;24.77;;;13.17;;
32872;SDS011;19224;52.462;16.898;2023-03-03T15:04:52;25.63;;;11.63;;
32872;SDS011;19224;52.462;16.898;2023-03-03T15:07:43;23.27;;;11.47;;
32872;SDS011;19224;52.462;16.898;2023-03-03T15:10:27;22.20;;;11.50;;
32872;SDS011;19224;52.462;16.898;2023-03-03T15:13:48;24.07;;;11.13;;
32872;SDS011;19224;52.462;16.898;2023-03-03T15:21:30;21.13;;;10.77;;
32872;SDS011;19224;52.462;16.898;2023-03-03T15:24:10;24.32;;;11.55;;
32872;SDS011;19224;52.462;16.898;2023-03-03T15:26:53;23.40;;;12.13;;
32872;SDS011;19224;52.462;16.898;2023-03-03T15:32:57;20.17;;;10.60;;
32872;SDS011;19224;52.462;16.898;2023-03-03T15:36:06;23.03;;;11.83;;
32872;SDS011;19224;52.462;16.898;2023-03-03T15:39:01;22.73;;;11.47;;
32872;SDS011;19224;52.462;16.898;2023-03-03T15:42:03;24.57;;;12.17;;
32872;SDS011;19224;52.462;16.898;2023-03-03T15:45:02;19.50;;;11.00;;
32872;SDS011;19224;52.462;16.898;2023-03-03T15:47:44;21.37;;;10.67;;
32872;SDS011;19224;52.462;16.898;2023-03-03T15:54:03;21.70;;;11.03;;
32872;SDS011;19224;52.462;16.898;2023-03-03T15:56:57;22.03;;;10.97;;
32872;SDS011;19224;52.462;16.898;2023-03-03T15:59:49;22.70;;;11.27;;
32872;SDS011;19224;52.462;16.898;2023-03-03T16:02:42;20.80;;;11.43;;
32872;SDS011;19224;52.462;16.898;2023-03-03T16:05:21;18.27;;;10.00;;
32872;SDS011;19224;52.462;16.898;2023-03-03T16:08:28;19.80;;;10.33;;
32872;SDS011;19224;52.462;16.898;2023-03-03T16:11:20;24.20;;;12.30;;
32872;SDS011;19224;52.462;16.898;2023-03-03T16:13:58;27.13;;;13.50;;
32872;SDS011;19224;52.462;16.898;2023-03-03T16:25:30;28.50;;;13.27;;
32872;SDS011;19224;52.462;16.898;2023-03-03T16:31:35;22.50;;;11.37;;
32872;SDS011;19224;52.462;16.898;2023-03-03T16:34:21;23.03;;;11.47;;
32872;SDS011;19224;52.462;16.898;2023-03-03T16:37:05;22.20;;;12.00;;
32872;SDS011;19224;52.462;16.898;2023-03-03T16:39:58;22.10;;;11.13;;
32872;SDS011;19224;52.462;16.898;2023-03-03T16:42:51;20.30;;;10.83;;
32872;SDS011;19224;52.462;16.898;2023-03-03T16:45:26;22.57;;;11.20;;
32872;SDS011;19224;52.462;16.898;2023-03-03T16:48:10;21.20;;;11.27;;
32872;SDS011;19224;52.462;16.898;2023-03-03T16:53:28;18.60;;;11.27;;
32872;SDS011;19224;52.462;16.898;2023-03-03T16:56:21;20.87;;;10.87;;
32872;SDS011;19224;52.462;16.898;2023-03-03T17:02:05;22.47;;;11.53;;
32872;SDS011;19224;52.462;16.898;2023-03-03T17:04:55;22.53;;;10.57;;
32872;SDS011;19224;52.462;16.898;2023-03-03T17:07:42;22.87;;;12.37;;
32872;SDS011;19224;52.462;16.898;2023-03-03T17:10:40;27.77;;;13.03;;
32872;SDS011;19224;52.462;16.898;2023-03-03T17:13:21;26.80;;;12.77;;
32872;SDS011;19224;52.462;16.898;2023-03-03T17:19:38;19.70;;;11.03;;
32872;SDS011;19224;52.462;16.898;2023-03-03T17:22:39;25.30;;;10.60;;
32872;SDS011;19224;52.462;16.898;2023-03-03T17:37:30;21.17;;;10.80;;
32872;SDS011;19224;52.462;16.898;2023-03-03T17:43:32;19.23;;;11.43;;
32872;SDS011;19224;52.462;16.898;2023-03-03T17:46:27;23.03;;;11.93;;
32872;SDS011;19224;52.462;16.898;2023-03-03T18:03:37;20.87;;;11.27;;
32872;SDS011;19224;52.462;16.898;2023-03-03T18:09:34;20.10;;;10.80;;
32872;SDS011;19224;52.462;16.898;2023-03-03T18:12:29;19.37;;;10.43;;
32872;SDS011;19224;52.462;16.898;2023-03-03T18:18:36;23.23;;;12.33;;
32872;SDS011;19224;52.462;16.898;2023-03-03T18:21:23;21.10;;;11.90;;
32872;SDS011;19224;52.462;16.898;2023-03-03T18:27:31;23.47;;;12.40;;
32872;SDS011;19224;52.462;16.898;2023-03-03T18:30:14;25.07;;;12.30;;
32872;SDS011;19224;52.462;16.898;2023-03-03T18:35:44;29.30;;;13.27;;
32872;SDS011;19224;52.462;16.898;2023-03-03T18:49:00;31.63;;;15.30;;
32872;SDS011;19224;52.462;16.898;2023-03-03T18:59:38;32.27;;;15.57;;
32872;SDS011;19224;52.462;16.898;2023-03-03T19:07:47;42.78;;;18.65;;
32872;SDS011;19224;52.462;16.898;2023-03-03T19:10:42;38.03;;;17.63;;
32872;SDS011;19224;52.462;16.898;2023-03-03T19:16:25;42.37;;;18.93;;
32872;SDS011;19224;52.462;16.898;2023-03-03T19:18:58;36.07;;;17.53;;
32872;SDS011;19224;52.462;16.898;2023-03-03T19:21:33;40.03;;;19.23;;
32872;SDS011;19224;52.462;16.898;2023-03-03T19:33:19;36.97;;;17.67;;
32872;SDS011;19224;52.462;16.898;2023-03-03T19:35:54;41.30;;;20.27;;
32872;SDS011;19224;52.462;16.898;2023-03-03T19:39:02;37.77;;;18.80;;
32872;SDS011;19224;52.462;16.898;2023-03-03T19:45:01;35.27;;;16.87;;
32872;SDS011;19224;52.462;16.898;2023-03-03T19:51:00;35.30;;;17.37;;
32872;SDS011;19224;52.462;16.898;2023-03-03T19:54:02;36.47;;;17.50;;
32872;SDS011;19224;52.462;16.898;2023-03-03T19:57:04;34.87;;;18.00;;
32872;SDS011;19224;52.462;16.898;2023-03-03T20:00:00;35.27;;;17.23;;
32872;SDS011;19224;52.462;16.898;2023-03-03T20:02:29;39.43;;;17.10;;